Mount Rainier National Park, WA

2:23 PM PDT on September 20, 2014 (GMT -0700)
Pierce County - Thun Field | Change Station
CLOSE
Current Station
Airport
Location: Puyallup,
Elevation: 538 ft
Nearby Weather Stations

Elev 538 ft 47.10 °N, 122.29 °W | Updated 47 days ago

Clear
Clear
81 °F
Feels Like 79 °F
N
7
Wind Variable Wind from ESE
Gusts 11 mph

Today
High -- | Low -- °F
--% Chance of Precip.
Yesterday
High -- | Low -- °F
Precip. -- in
6:51 AM 7:08 PM
Waning Crescent, 10% visible
Pressure 30.01 in
Visibility 10.0 miles
Clouds Clear
Heat Index 79 °F
Dew Point 54 °F
Humidity 38%
Rainfall 0.00 in
Snow Depth 0 in , 0 in , 1 in
UV 1 out of 12
Pollen 2.20 out of 12
Air Quality Not available.
Flu Activity Not available.
METAR KPLU 041415Z AUTO 00000KT 10SM CLR 14/14 A3001 RMK AO2

More Conditions Fewer Conditions

Pressure 30.01 in
Visibility 10.0 miles
Clouds Clear
Heat Index 79 °F
Dew Point 54 °F
Humidity 38%
Rainfall 0.00 in
Snow Depth 0 in , 0 in , 1 in
UV 1 out of 12
Pollen 2.20 out of 12
Air Quality Not available.
Flu Activity Not available.
METAR KPLU 041415Z AUTO 00000KT 10SM CLR 14/14 A3001 RMK AO2

More Conditions Fewer Conditions

10-Day Weather Forecast

Almanac

Astronomy

Sep. 20, 2014 Rise Set
Actual Time 6:51 AM PDT 7:08 PM PDT
Civil Twilight 6:21 AM PDT 7:38 PM PDT
Nautical Twilight 5:45 AM PDT 8:14 PM PDT
Astronomical Twilight 5:08 AM PDT 8:51 PM PDT
Moon 3:25 AM PDT 5:23 PM PDT
Length of Visible Light 13h 17m
Length of Day
12h 17m
Tomorrow will be 3m 18s shorter.
Waning Crescent, 10% of the Moon is Illuminated
Today
Waning Crescent
Sep 24
New
Oct 1
First Quarter
Oct 8
Full
Oct 15
Last Quarter

Today's Extremes

State Highs State Lows

Community

WunderPhotos

Upload Photos

1,754,947 photos uploaded!

WunderBlogs® & News

Nearby

Snow Depth

Station Depth Elevation
Surprise Lakes 0 in 4250 ft
Sourdough Gulch 0 in 4000 ft
Sentinel Butte 1 in 4920 ft
Quartz Peak 0 in 4700 ft
Moses Mountain 0 in 5300 ft

Earthquake Activity

City Distance Mag. Time & Date
Seabeck, Washington 79 miles 4.0 3:06 AM PDT
2014-09-17
Minimum magnitude displayed is 2.5.

Coastal Water Temperatures

Place Temperature
No Stations Reporting

Nearby Weather Stations